sensor_id;sensor_type;location;lat;lon;timestamp;temperature;humidity
1063;DHT22;520;50.932;6.962;2023-05-23T00:00:46;19.10;99.40
1063;DHT22;520;50.932;6.962;2023-05-23T00:03:45;19.00;99.50
1063;DHT22;520;50.932;6.962;2023-05-23T00:06:56;18.90;99.50
1063;DHT22;520;50.932;6.962;2023-05-23T00:09:28;18.80;99.70
1063;DHT22;520;50.932;6.962;2023-05-23T00:12:06;18.80;99.80
1063;DHT22;520;50.932;6.962;2023-05-23T00:14:39;18.80;99.70
1063;DHT22;520;50.932;6.962;2023-05-23T00:17:53;18.70;99.70
1063;DHT22;520;50.932;6.962;2023-05-23T00:20:54;18.60;99.80
1063;DHT22;520;50.932;6.962;2023-05-23T00:23:47;18.60;99.90
1063;DHT22;520;50.932;6.962;2023-05-23T00:26:45;18.60;99.80
1063;DHT22;520;50.932;6.962;2023-05-23T00:29:34;18.60;99.90
1063;DHT22;520;50.932;6.962;2023-05-23T00:32:39;18.60;99.90
1063;DHT22;520;50.932;6.962;2023-05-23T00:35:23;18.50;99.90
1063;DHT22;520;50.932;6.962;2023-05-23T00:38:08;18.50;99.90
1063;DHT22;520;50.932;6.962;2023-05-23T00:41:00;18.60;99.90
1063;DHT22;520;50.932;6.962;2023-05-23T00:46:45;18.40;99.90
1063;DHT22;520;50.932;6.962;2023-05-23T00:49:33;18.40;99.90
1063;DHT22;520;50.932;6.962;2023-05-23T00:52:05;18.40;99.90
1063;DHT22;520;50.932;6.962;2023-05-23T00:54:45;18.50;99.90
1063;DHT22;520;50.932;6.962;2023-05-23T00:57:17;18.50;99.90
1063;DHT22;520;50.932;6.962;2023-05-23T01:00:23;18.40;99.90
1063;DHT22;520;50.932;6.962;2023-05-23T01:02:58;18.40;99.90
1063;DHT22;520;50.932;6.962;2023-05-23T01:05:38;18.40;99.90
1063;DHT22;520;50.932;6.962;2023-05-23T01:08:10;18.50;99.90
1063;DHT22;520;50.932;6.962;2023-05-23T01:11:16;18.40;99.70
1063;DHT22;520;50.932;6.962;2023-05-23T01:14:23;18.40;99.70
1063;DHT22;520;50.932;6.962;2023-05-23T01:17:05;18.40;99.60
1063;DHT22;520;50.932;6.962;2023-05-23T01:19:54;18.50;99.40
1063;DHT22;520;50.932;6.962;2023-05-23T01:26:01;18.50;99.20
1063;DHT22;520;50.932;6.962;2023-05-23T01:28:57;18.50;98.90
1063;DHT22;520;50.932;6.962;2023-05-23T01:31:42;18.60;98.70
1063;DHT22;520;50.932;6.962;2023-05-23T01:34:22;18.50;98.80
1063;DHT22;520;50.932;6.962;2023-05-23T01:36:55;18.40;99.00
1063;DHT22;520;50.932;6.962;2023-05-23T01:39:34;18.30;99.30
1063;DHT22;520;50.932;6.962;2023-05-23T01:42:20;18.20;99.50
1063;DHT22;520;50.932;6.962;2023-05-23T01:45:04;18.20;99.70
1063;DHT22;520;50.932;6.962;2023-05-23T01:47:56;18.30;99.80
1063;DHT22;520;50.932;6.962;2023-05-23T01:50:50;18.40;99.50
1063;DHT22;520;50.932;6.962;2023-05-23T01:53:52;18.40;99.60
1063;DHT22;520;50.932;6.962;2023-05-23T01:56:38;18.40;99.80
1063;DHT22;520;50.932;6.962;2023-05-23T01:59:48;18.30;99.80
1063;DHT22;520;50.932;6.962;2023-05-23T02:02:23;18.20;99.70
1063;DHT22;520;50.932;6.962;2023-05-23T02:05:15;18.20;99.60
1063;DHT22;520;50.932;6.962;2023-05-23T02:08:08;18.20;99.30
1063;DHT22;520;50.932;6.962;2023-05-23T02:11:00;18.20;99.30
1063;DHT22;520;50.932;6.962;2023-05-23T02:13:59;18.20;99.10
1063;DHT22;520;50.932;6.962;2023-05-23T02:16:41;18.20;99.10
1063;DHT22;520;50.932;6.962;2023-05-23T02:19:44;18.10;98.90
1063;DHT22;520;50.932;6.962;2023-05-23T02:22:43;18.10;98.90
1063;DHT22;520;50.932;6.962;2023-05-23T02:25:25;18.30;98.80
1063;DHT22;520;50.932;6.962;2023-05-23T02:28:05;18.20;98.40
1063;DHT22;520;50.932;6.962;2023-05-23T02:30:54;18.10;98.50
1063;DHT22;520;50.932;6.962;2023-05-23T02:34:00;18.00;98.50
1063;DHT22;520;50.932;6.962;2023-05-23T02:37:02;18.10;98.40
1063;DHT22;520;50.932;6.962;2023-05-23T02:39:39;18.10;98.50
1063;DHT22;520;50.932;6.962;2023-05-23T02:42:35;18.10;98.40
1063;DHT22;520;50.932;6.962;2023-05-23T02:45:19;18.00;98.40
1063;DHT22;520;50.932;6.962;2023-05-23T02:47:53;17.90;98.30
1063;DHT22;520;50.932;6.962;2023-05-23T02:50:31;17.90;98.50
1063;DHT22;520;50.932;6.962;2023-05-23T02:53:25;17.90;98.60
1063;DHT22;520;50.932;6.962;2023-05-23T02:56:06;17.80;98.80
1063;DHT22;520;50.932;6.962;2023-05-23T02:58:47;17.80;99.00
1063;DHT22;520;50.932;6.962;2023-05-23T03:01:35;17.80;99.00
1063;DHT22;520;50.932;6.962;2023-05-23T03:04:27;17.80;99.10
1063;DHT22;520;50.932;6.962;2023-05-23T03:07:28;17.80;99.30
1063;DHT22;520;50.932;6.962;2023-05-23T03:10:17;17.90;99.10
1063;DHT22;520;50.932;6.962;2023-05-23T03:13:13;17.80;99.10
1063;DHT22;520;50.932;6.962;2023-05-23T03:16:07;17.80;99.10
1063;DHT22;520;50.932;6.962;2023-05-23T03:21:54;17.90;99.30
1063;DHT22;520;50.932;6.962;2023-05-23T03:31:29;17.80;99.70
1063;DHT22;520;50.932;6.962;2023-05-23T03:37:04;17.70;99.80
1063;DHT22;520;50.932;6.962;2023-05-23T03:39:44;17.70;99.90
1063;DHT22;520;50.932;6.962;2023-05-23T03:42:39;17.70;99.90
1063;DHT22;520;50.932;6.962;2023-05-23T03:45:36;17.70;99.90
1063;DHT22;520;50.932;6.962;2023-05-23T03:51:50;17.70;99.90
1063;DHT22;520;50.932;6.962;2023-05-23T03:54:36;17.70;99.90
1063;DHT22;520;50.932;6.962;2023-05-23T03:57:05;17.60;99.90
1063;DHT22;520;50.932;6.962;2023-05-23T03:59:35;17.70;99.90
1063;DHT22;520;50.932;6.962;2023-05-23T04:02:22;17.60;99.90
1063;DHT22;520;50.932;6.962;2023-05-23T04:05:57;17.50;99.90
1063;DHT22;520;50.932;6.962;2023-05-23T04:09:01;17.40;99.90
1063;DHT22;520;50.932;6.962;2023-05-23T04:18:09;17.40;99.90
1063;DHT22;520;50.932;6.962;2023-05-23T04:24:15;17.40;99.90
1063;DHT22;520;50.932;6.962;2023-05-23T04:27:16;17.40;99.90
1063;DHT22;520;50.932;6.962;2023-05-23T04:30:36;17.40;99.90
1063;DHT22;520;50.932;6.962;2023-05-23T04:36:49;17.40;99.90
1063;DHT22;520;50.932;6.962;2023-05-23T04:40:03;17.40;99.90
1063;DHT22;520;50.932;6.962;2023-05-23T04:42:55;17.50;99.90
1063;DHT22;520;50.932;6.962;2023-05-23T04:45:48;17.40;99.90
1063;DHT22;520;50.932;6.962;2023-05-23T04:48:51;17.50;99.90
1063;DHT22;520;50.932;6.962;2023-05-23T04:51:46;17.60;99.90
1063;DHT22;520;50.932;6.962;2023-05-23T04:54:57;17.50;99.90
1063;DHT22;520;50.932;6.962;2023-05-23T04:57:58;17.40;99.90
1063;DHT22;520;50.932;6.962;2023-05-23T05:01:07;17.40;99.90
1063;DHT22;520;50.932;6.962;2023-05-23T05:04:12;17.30;99.90
1063;DHT22;520;50.932;6.962;2023-05-23T05:06:51;17.30;99.90
1063;DHT22;520;50.932;6.962;2023-05-23T05:09:44;17.30;99.90
1063;DHT22;520;50.932;6.962;2023-05-23T05:12:32;17.30;99.90
1063;DHT22;520;50.932;6.962;2023-05-23T05:15:24;17.30;99.90
1063;DHT22;520;50.932;6.962;2023-05-23T05:18:53;17.20;99.90
1063;DHT22;520;50.932;6.962;2023-05-23T05:25:08;17.20;99.90
1063;DHT22;520;50.932;6.962;2023-05-23T05:31:29;17.20;99.90
1063;DHT22;520;50.932;6.962;2023-05-23T05:34:15;17.30;99.90
1063;DHT22;520;50.932;6.962;2023-05-23T05:37:04;17.20;99.90
1063;DHT22;520;50.932;6.962;2023-05-23T05:43:33;17.20;99.90
1063;DHT22;520;50.932;6.962;2023-05-23T05:47:03;17.20;99.90
1063;DHT22;520;50.932;6.962;2023-05-23T05:50:12;17.30;99.90
1063;DHT22;520;50.932;6.962;2023-05-23T05:53:36;17.20;99.90
1063;DHT22;520;50.932;6.962;2023-05-23T05:57:08;17.20;99.90
1063;DHT22;520;50.932;6.962;2023-05-23T06:00:09;17.20;99.90
1063;DHT22;520;50.932;6.962;2023-05-23T06:02:45;17.30;99.90
1063;DHT22;520;50.932;6.962;2023-05-23T06:06:21;17.30;99.90
1063;DHT22;520;50.932;6.962;2023-05-23T06:09:04;17.30;99.90
1063;DHT22;520;50.932;6.962;2023-05-23T06:11:41;17.20;99.90
1063;DHT22;520;50.932;6.962;2023-05-23T06:14:40;17.20;99.90
1063;DHT22;520;50.932;6.962;2023-05-23T06:17:50;17.20;99.90
1063;DHT22;520;50.932;6.962;2023-05-23T06:20:47;17.20;99.90
1063;DHT22;520;50.932;6.962;2023-05-23T06:23:57;17.30;99.90
1063;DHT22;520;50.932;6.962;2023-05-23T06:27:26;17.30;99.90
1063;DHT22;520;50.932;6.962;2023-05-23T06:30:35;17.30;99.90
1063;DHT22;520;50.932;6.962;2023-05-23T06:33:49;17.40;99.90
1063;DHT22;520;50.932;6.962;2023-05-23T06:36:45;17.30;99.90
1063;DHT22;520;50.932;6.962;2023-05-23T06:39:40;17.30;99.90
1063;DHT22;520;50.932;6.962;2023-05-23T06:46:50;17.20;99.90
1063;DHT22;520;50.932;6.962;2023-05-23T06:53:12;17.10;99.90
1063;DHT22;520;50.932;6.962;2023-05-23T06:55:56;17.20;99.90
1063;DHT22;520;50.932;6.962;2023-05-23T06:58:43;17.10;99.90
1063;DHT22;520;50.932;6.962;2023-05-23T07:01:26;17.10;99.90
1063;DHT22;520;50.932;6.962;2023-05-23T07:04:39;17.10;99.90
1063;DHT22;520;50.932;6.962;2023-05-23T07:11:03;17.20;99.90
1063;DHT22;520;50.932;6.962;2023-05-23T07:17:43;17.30;99.90
1063;DHT22;520;50.932;6.962;2023-05-23T07:21:09;17.30;99.90
1063;DHT22;520;50.932;6.962;2023-05-23T07:23:58;17.30;99.90
1063;DHT22;520;50.932;6.962;2023-05-23T07:27:06;17.40;99.90
1063;DHT22;520;50.932;6.962;2023-05-23T07:30:03;17.30;99.90
1063;DHT22;520;50.932;6.962;2023-05-23T07:32:43;17.30;99.90
1063;DHT22;520;50.932;6.962;2023-05-23T07:38:19;17.50;99.90
1063;DHT22;520;50.932;6.962;2023-05-23T07:44:48;17.40;99.90
1063;DHT22;520;50.932;6.962;2023-05-23T07:47:48;17.40;99.90
1063;DHT22;520;50.932;6.962;2023-05-23T07:51:15;17.50;99.90
1063;DHT22;520;50.932;6.962;2023-05-23T07:58:10;17.60;99.90
1063;DHT22;520;50.932;6.962;2023-05-23T08:01:18;17.60;99.90
1063;DHT22;520;50.932;6.962;2023-05-23T08:04:12;17.80;99.90
1063;DHT22;520;50.932;6.962;2023-05-23T08:06:40;17.80;99.90
1063;DHT22;520;50.932;6.962;2023-05-23T08:09:46;17.70;99.90
1063;DHT22;520;50.932;6.962;2023-05-23T08:12:33;17.60;99.90
1063;DHT22;520;50.932;6.962;2023-05-23T08:15:33;17.60;99.90
1063;DHT22;520;50.932;6.962;2023-05-23T08:18:48;17.50;99.90
1063;DHT22;520;50.932;6.962;2023-05-23T08:21:37;17.60;99.90
1063;DHT22;520;50.932;6.962;2023-05-23T08:24:29;17.50;99.90
1063;DHT22;520;50.932;6.962;2023-05-23T08:27:13;17.60;99.90
1063;DHT22;520;50.932;6.962;2023-05-23T08:29:59;17.50;99.90
1063;DHT22;520;50.932;6.962;2023-05-23T08:37:02;17.40;99.90
1063;DHT22;520;50.932;6.962;2023-05-23T08:39:55;17.50;99.90
1063;DHT22;520;50.932;6.962;2023-05-23T08:42:46;17.40;99.90
1063;DHT22;520;50.932;6.962;2023-05-23T08:45:37;17.30;99.90
1063;DHT22;520;50.932;6.962;2023-05-23T08:51:47;17.30;99.90
1063;DHT22;520;50.932;6.962;2023-05-23T08:58:46;17.40;99.90
1063;DHT22;520;50.932;6.962;2023-05-23T09:10:22;17.30;99.90
1063;DHT22;520;50.932;6.962;2023-05-23T09:17:37;17.30;99.90
1063;DHT22;520;50.932;6.962;2023-05-23T09:24:35;17.40;99.90
1063;DHT22;520;50.932;6.962;2023-05-23T09:27:52;17.40;99.90
1063;DHT22;520;50.932;6.962;2023-05-23T09:42:47;17.40;99.90
1063;DHT22;520;50.932;6.962;2023-05-23T09:46:41;17.50;99.90
1063;DHT22;520;50.932;6.962;2023-05-23T10:00:48;17.40;98.70
1063;DHT22;520;50.932;6.962;2023-05-23T10:06:55;17.00;98.90
1063;DHT22;520;50.932;6.962;2023-05-23T10:10:34;16.90;99.20
1063;DHT22;520;50.932;6.962;2023-05-23T10:24:49;18.10;96.70
1063;DHT22;520;50.932;6.962;2023-05-23T10:47:02;17.40;97.70
1063;DHT22;520;50.932;6.962;2023-05-23T10:57:14;17.50;96.20
1063;DHT22;520;50.932;6.962;2023-05-23T11:04:03;17.80;95.80
1063;DHT22;520;50.932;6.962;2023-05-23T11:11:14;18.00;94.60
1063;DHT22;520;50.932;6.962;2023-05-23T11:25:15;17.40;95.50
1063;DHT22;520;50.932;6.962;2023-05-23T11:50:13;17.50;92.90
1063;DHT22;520;50.932;6.962;2023-05-23T11:53:34;18.30;91.60
1063;DHT22;520;50.932;6.962;2023-05-23T11:56:33;18.40;91.30
1063;DHT22;520;50.932;6.962;2023-05-23T12:00:01;18.40;90.90
1063;DHT22;520;50.932;6.962;2023-05-23T12:02:54;18.60;91.00
1063;DHT22;520;50.932;6.962;2023-05-23T12:09:41;19.20;88.10
1063;DHT22;520;50.932;6.962;2023-05-23T12:12:28;19.70;88.30
1063;DHT22;520;50.932;6.962;2023-05-23T12:19:23;20.80;78.70
1063;DHT22;520;50.932;6.962;2023-05-23T12:25:55;19.70;82.90
1063;DHT22;520;50.932;6.962;2023-05-23T12:28:49;19.60;83.70
1063;DHT22;520;50.932;6.962;2023-05-23T12:31:55;19.50;84.30
1063;DHT22;520;50.932;6.962;2023-05-23T12:39:08;19.60;80.70
1063;DHT22;520;50.932;6.962;2023-05-23T12:42:08;19.20;82.70
1063;DHT22;520;50.932;6.962;2023-05-23T12:45:01;18.90;84.10
1063;DHT22;520;50.932;6.962;2023-05-23T12:47:46;19.10;84.50
1063;DHT22;520;50.932;6.962;2023-05-23T12:51:08;19.50;83.10
1063;DHT22;520;50.932;6.962;2023-05-23T12:53:46;19.60;81.50
1063;DHT22;520;50.932;6.962;2023-05-23T12:56:30;19.20;81.90
1063;DHT22;520;50.932;6.962;2023-05-23T12:59:07;19.30;80.50
1063;DHT22;520;50.932;6.962;2023-05-23T13:02:00;18.90;80.80
1063;DHT22;520;50.932;6.962;2023-05-23T13:04:46;18.70;82.10
1063;DHT22;520;50.932;6.962;2023-05-23T13:07:32;18.70;82.50
1063;DHT22;520;50.932;6.962;2023-05-23T13:10:16;18.80;82.30
1063;DHT22;520;50.932;6.962;2023-05-23T13:18:41;19.30;80.30
1063;DHT22;520;50.932;6.962;2023-05-23T13:21:33;19.30;80.60
1063;DHT22;520;50.932;6.962;2023-05-23T13:24:16;18.90;81.20
1063;DHT22;520;50.932;6.962;2023-05-23T13:26:52;18.90;81.70
1063;DHT22;520;50.932;6.962;2023-05-23T13:29:37;19.10;80.90
1063;DHT22;520;50.932;6.962;2023-05-23T13:32:08;19.30;79.40
1063;DHT22;520;50.932;6.962;2023-05-23T13:34:56;19.30;78.60
1063;DHT22;520;50.932;6.962;2023-05-23T13:37:33;19.30;77.80
1063;DHT22;520;50.932;6.962;2023-05-23T13:41:02;19.40;77.80
1063;DHT22;520;50.932;6.962;2023-05-23T13:44:18;19.40;77.40
1063;DHT22;520;50.932;6.962;2023-05-23T13:47:32;19.40;76.50
1063;DHT22;520;50.932;6.962;2023-05-23T13:50:06;19.50;75.60
1063;DHT22;520;50.932;6.962;2023-05-23T13:53:16;19.60;74.90
1063;DHT22;520;50.932;6.962;2023-05-23T13:56:08;19.60;74.20
1063;DHT22;520;50.932;6.962;2023-05-23T13:58:58;19.80;73.80
1063;DHT22;520;50.932;6.962;2023-05-23T14:01:32;19.80;71.20
1063;DHT22;520;50.932;6.962;2023-05-23T14:04:34;19.90;70.30
1063;DHT22;520;50.932;6.962;2023-05-23T14:07:35;20.40;67.50
1063;DHT22;520;50.932;6.962;2023-05-23T14:10:17;20.10;67.40
1063;DHT22;520;50.932;6.962;2023-05-23T14:12:48;20.00;66.80
1063;DHT22;520;50.932;6.962;2023-05-23T14:15:38;19.90;66.70
1063;DHT22;520;50.932;6.962;2023-05-23T14:18:27;20.00;66.80
1063;DHT22;520;50.932;6.962;2023-05-23T14:21:19;20.70;64.80
1063;DHT22;520;50.932;6.962;2023-05-23T14:24:07;20.30;63.60
1063;DHT22;520;50.932;6.962;2023-05-23T14:26:47;20.30;62.20
1063;DHT22;520;50.932;6.962;2023-05-23T14:29:34;20.00;64.30
1063;DHT22;520;50.932;6.962;2023-05-23T14:32:21;20.00;64.00
1063;DHT22;520;50.932;6.962;2023-05-23T14:38:17;20.50;62.80
1063;DHT22;520;50.932;6.962;2023-05-23T14:41:46;20.30;63.50
1063;DHT22;520;50.932;6.962;2023-05-23T14:45:30;20.20;62.60
1063;DHT22;520;50.932;6.962;2023-05-23T14:52:20;20.30;62.40
1063;DHT22;520;50.932;6.962;2023-05-23T14:55:20;20.00;62.50
1063;DHT22;520;50.932;6.962;2023-05-23T14:58:03;20.00;62.20
1063;DHT22;520;50.932;6.962;2023-05-23T15:04:12;19.80;62.60
1063;DHT22;520;50.932;6.962;2023-05-23T15:06:56;19.60;63.00
1063;DHT22;520;50.932;6.962;2023-05-23T15:09:56;19.60;63.20
1063;DHT22;520;50.932;6.962;2023-05-23T15:12:44;19.60;63.80
1063;DHT22;520;50.932;6.962;2023-05-23T15:15:43;19.60;63.00
1063;DHT22;520;50.932;6.962;2023-05-23T15:18:22;19.70;62.80
1063;DHT22;520;50.932;6.962;2023-05-23T15:24:25;19.50;62.60
1063;DHT22;520;50.932;6.962;2023-05-23T15:27:37;19.70;63.20
1063;DHT22;520;50.932;6.962;2023-05-23T15:30:13;19.80;62.40
1063;DHT22;520;50.932;6.962;2023-05-23T15:32:50;19.60;62.30
1063;DHT22;520;50.932;6.962;2023-05-23T15:35:49;19.50;63.20
1063;DHT22;520;50.932;6.962;2023-05-23T15:38:45;19.60;63.60
1063;DHT22;520;50.932;6.962;2023-05-23T15:41:19;19.70;63.30
1063;DHT22;520;50.932;6.962;2023-05-23T15:44:01;19.60;63.20
1063;DHT22;520;50.932;6.962;2023-05-23T15:46:46;19.90;63.30
1063;DHT22;520;50.932;6.962;2023-05-23T15:49:28;19.90;62.90
1063;DHT22;520;50.932;6.962;2023-05-23T15:58:34;20.10;62.80
1063;DHT22;520;50.932;6.962;2023-05-23T16:04:51;19.60;62.60
1063;DHT22;520;50.932;6.962;2023-05-23T16:07:35;19.70;62.00
1063;DHT22;520;50.932;6.962;2023-05-23T16:11:05;19.50;62.60
1063;DHT22;520;50.932;6.962;2023-05-23T16:16:55;19.60;61.20
1063;DHT22;520;50.932;6.962;2023-05-23T16:19:52;19.90;61.10
1063;DHT22;520;50.932;6.962;2023-05-23T16:22:39;19.90;60.30
1063;DHT22;520;50.932;6.962;2023-05-23T16:25:54;20.00;60.20
1063;DHT22;520;50.932;6.962;2023-05-23T16:29:14;20.10;60.20
1063;DHT22;520;50.932;6.962;2023-05-23T16:31:40;20.40;59.20
1063;DHT22;520;50.932;6.962;2023-05-23T16:34:30;20.10;58.70
1063;DHT22;520;50.932;6.962;2023-05-23T16:37:40;20.10;59.00
1063;DHT22;520;50.932;6.962;2023-05-23T16:41:06;20.20;59.00
1063;DHT22;520;50.932;6.962;2023-05-23T16:54:07;19.90;58.40
1063;DHT22;520;50.932;6.962;2023-05-23T17:09:25;19.40;60.00
1063;DHT22;520;50.932;6.962;2023-05-23T17:12:33;19.50;59.60
1063;DHT22;520;50.932;6.962;2023-05-23T17:19:18;19.30;60.40
1063;DHT22;520;50.932;6.962;2023-05-23T17:22:52;19.20;60.60
1063;DHT22;520;50.932;6.962;2023-05-23T17:25:54;19.10;61.70
1063;DHT22;520;50.932;6.962;2023-05-23T17:32:41;18.80;62.10
1063;DHT22;520;50.932;6.962;2023-05-23T17:45:50;18.80;61.80
1063;DHT22;520;50.932;6.962;2023-05-23T17:48:50;18.70;62.10
1063;DHT22;520;50.932;6.962;2023-05-23T17:51:37;18.50;62.90
1063;DHT22;520;50.932;6.962;2023-05-23T17:58:04;18.50;63.20
1063;DHT22;520;50.932;6.962;2023-05-23T18:00:45;18.60;62.60
1063;DHT22;520;50.932;6.962;2023-05-23T18:03:36;18.40;61.70
1063;DHT22;520;50.932;6.962;2023-05-23T18:06:39;18.60;61.70
1063;DHT22;520;50.932;6.962;2023-05-23T18:09:37;18.80;60.40
1063;DHT22;520;50.932;6.962;2023-05-23T18:12:29;18.70;60.50
1063;DHT22;520;50.932;6.962;2023-05-23T18:15:44;18.60;61.00
1063;DHT22;520;50.932;6.962;2023-05-23T18:18:33;18.30;61.20
1063;DHT22;520;50.932;6.962;2023-05-23T18:21:34;18.20;60.80
1063;DHT22;520;50.932;6.962;2023-05-23T18:24:14;18.50;60.30
1063;DHT22;520;50.932;6.962;2023-05-23T18:27:12;18.40;60.30
1063;DHT22;520;50.932;6.962;2023-05-23T18:33:06;18.20;62.00
1063;DHT22;520;50.932;6.962;2023-05-23T18:35:55;18.20;62.90
1063;DHT22;520;50.932;6.962;2023-05-23T18:38:51;18.20;62.30
1063;DHT22;520;50.932;6.962;2023-05-23T18:41:31;18.20;62.50
1063;DHT22;520;50.932;6.962;2023-05-23T18:44:32;18.20;62.60
1063;DHT22;520;50.932;6.962;2023-05-23T18:47:27;17.90;62.60
1063;DHT22;520;50.932;6.962;2023-05-23T18:50:30;17.80;62.30
1063;DHT22;520;50.932;6.962;2023-05-23T18:53:43;17.70;61.80
1063;DHT22;520;50.932;6.962;2023-05-23T18:59:23;17.60;61.60
1063;DHT22;520;50.932;6.962;2023-05-23T19:02:04;17.60;62.00
1063;DHT22;520;50.932;6.962;2023-05-23T19:05:17;17.60;61.20
1063;DHT22;520;50.932;6.962;2023-05-23T19:08:00;17.50;62.10
1063;DHT22;520;50.932;6.962;2023-05-23T19:10:32;17.60;63.30
1063;DHT22;520;50.932;6.962;2023-05-23T19:13:28;17.60;63.30
1063;DHT22;520;50.932;6.962;2023-05-23T19:16:46;17.50;64.60
1063;DHT22;520;50.932;6.962;2023-05-23T19:19:51;17.60;64.50
1063;DHT22;520;50.932;6.962;2023-05-23T19:25:31;17.30;65.60
1063;DHT22;520;50.932;6.962;2023-05-23T19:28:31;17.40;66.00
1063;DHT22;520;50.932;6.962;2023-05-23T19:31:30;17.30;66.40
1063;DHT22;520;50.932;6.962;2023-05-23T19:34:48;17.20;66.50
1063;DHT22;520;50.932;6.962;2023-05-23T19:48:54;17.00;65.80
1063;DHT22;520;50.932;6.962;2023-05-23T19:52:15;17.00;65.90
1063;DHT22;520;50.932;6.962;2023-05-23T19:58:43;16.90;66.30
1063;DHT22;520;50.932;6.962;2023-05-23T20:01:46;16.70;66.50
1063;DHT22;520;50.932;6.962;2023-05-23T20:04:32;16.60;67.00
1063;DHT22;520;50.932;6.962;2023-05-23T20:07:36;16.50;67.50
1063;DHT22;520;50.932;6.962;2023-05-23T20:11:05;16.60;66.90
1063;DHT22;520;50.932;6.962;2023-05-23T20:14:16;16.70;66.70
1063;DHT22;520;50.932;6.962;2023-05-23T20:17:24;16.60;66.90
1063;DHT22;520;50.932;6.962;2023-05-23T20:31:29;16.50;67.50
1063;DHT22;520;50.932;6.962;2023-05-23T20:34:17;16.40;67.60
1063;DHT22;520;50.932;6.962;2023-05-23T20:45:52;16.30;68.60
1063;DHT22;520;50.932;6.962;2023-05-23T20:48:35;16.10;68.80
1063;DHT22;520;50.932;6.962;2023-05-23T20:52:17;16.30;68.40
1063;DHT22;520;50.932;6.962;2023-05-23T20:55:03;16.40;68.00
1063;DHT22;520;50.932;6.962;2023-05-23T20:58:14;16.30;68.30
1063;DHT22;520;50.932;6.962;2023-05-23T21:01:28;16.10;68.80
1063;DHT22;520;50.932;6.962;2023-05-23T21:04:13;16.00;69.30
1063;DHT22;520;50.932;6.962;2023-05-23T21:07:03;15.90;69.60
1063;DHT22;520;50.932;6.962;2023-05-23T21:10:03;15.80;69.40
1063;DHT22;520;50.932;6.962;2023-05-23T21:13:32;16.10;69.20
1063;DHT22;520;50.932;6.962;2023-05-23T21:16:35;16.20;68.50
1063;DHT22;520;50.932;6.962;2023-05-23T21:19:42;16.00;68.40
1063;DHT22;520;50.932;6.962;2023-05-23T21:22:31;15.90;69.00
1063;DHT22;520;50.932;6.962;2023-05-23T21:25:15;16.00;68.60
1063;DHT22;520;50.932;6.962;2023-05-23T21:27:53;15.80;69.10
1063;DHT22;520;50.932;6.962;2023-05-23T21:31:01;15.70;69.00
1063;DHT22;520;50.932;6.962;2023-05-23T21:33:41;15.50;69.40
1063;DHT22;520;50.932;6.962;2023-05-23T21:36:18;15.70;69.00
1063;DHT22;520;50.932;6.962;2023-05-23T21:38:57;15.60;69.20
1063;DHT22;520;50.932;6.962;2023-05-23T21:41:33;15.50;69.10
1063;DHT22;520;50.932;6.962;2023-05-23T21:44:53;15.40;69.60
1063;DHT22;520;50.932;6.962;2023-05-23T21:47:37;15.60;69.20
1063;DHT22;520;50.932;6.962;2023-05-23T21:50:24;15.60;69.20
1063;DHT22;520;50.932;6.962;2023-05-23T21:53:05;15.60;69.50
1063;DHT22;520;50.932;6.962;2023-05-23T21:55:51;15.50;69.20
1063;DHT22;520;50.932;6.962;2023-05-23T21:58:38;15.50;69.20
1063;DHT22;520;50.932;6.962;2023-05-23T22:01:36;15.30;69.80
1063;DHT22;520;50.932;6.962;2023-05-23T22:04:21;15.30;69.60
1063;DHT22;520;50.932;6.962;2023-05-23T22:07:07;15.20;70.00
1063;DHT22;520;50.932;6.962;2023-05-23T22:09:44;15.20;70.50
1063;DHT22;520;50.932;6.962;2023-05-23T22:12:19;15.20;70.00
1063;DHT22;520;50.932;6.962;2023-05-23T22:14:53;15.20;70.20
1063;DHT22;520;50.932;6.962;2023-05-23T22:23:54;15.10;70.50
1063;DHT22;520;50.932;6.962;2023-05-23T22:29:51;15.10;70.20
1063;DHT22;520;50.932;6.962;2023-05-23T22:35:00;14.90;71.20
1063;DHT22;520;50.932;6.962;2023-05-23T22:37:27;14.70;71.30
1063;DHT22;520;50.932;6.962;2023-05-23T22:39:59;14.80;71.40
1063;DHT22;520;50.932;6.962;2023-05-23T22:42:32;14.70;71.90
1063;DHT22;520;50.932;6.962;2023-05-23T22:45:16;14.70;72.20
1063;DHT22;520;50.932;6.962;2023-05-23T22:47:58;14.70;71.70
1063;DHT22;520;50.932;6.962;2023-05-23T22:50:38;14.90;70.70
1063;DHT22;520;50.932;6.962;2023-05-23T22:53:12;14.70;71.40
1063;DHT22;520;50.932;6.962;2023-05-23T22:56:07;14.60;71.60
1063;DHT22;520;50.932;6.962;2023-05-23T22:58:46;14.50;72.50
1063;DHT22;520;50.932;6.962;2023-05-23T23:01:15;14.50;72.50
1063;DHT22;520;50.932;6.962;2023-05-23T23:03:42;14.40;72.80
1063;DHT22;520;50.932;6.962;2023-05-23T23:06:20;14.30;73.10
1063;DHT22;520;50.932;6.962;2023-05-23T23:08:46;14.40;72.60
1063;DHT22;520;50.932;6.962;2023-05-23T23:11:23;14.50;72.60
1063;DHT22;520;50.932;6.962;2023-05-23T23:13:56;14.50;72.30
1063;DHT22;520;50.932;6.962;2023-05-23T23:16:31;14.60;72.10
1063;DHT22;520;50.932;6.962;2023-05-23T23:19:02;14.60;72.10
1063;DHT22;520;50.932;6.962;2023-05-23T23:21:35;14.50;71.70
1063;DHT22;520;50.932;6.962;2023-05-23T23:24:17;14.50;71.90
1063;DHT22;520;50.932;6.962;2023-05-23T23:26:51;14.40;72.20
1063;DHT22;520;50.932;6.962;2023-05-23T23:29:33;14.40;72.60
1063;DHT22;520;50.932;6.962;2023-05-23T23:32:04;14.20;72.80
1063;DHT22;520;50.932;6.962;2023-05-23T23:34:42;14.00;73.60
1063;DHT22;520;50.932;6.962;2023-05-23T23:37:14;14.10;73.90
1063;DHT22;520;50.932;6.962;2023-05-23T23:39:45;14.10;73.80
1063;DHT22;520;50.932;6.962;2023-05-23T23:42:26;14.20;73.70
1063;DHT22;520;50.932;6.962;2023-05-23T23:45:09;14.00;74.00
1063;DHT22;520;50.932;6.962;2023-05-23T23:47:36;14.10;74.30
1063;DHT22;520;50.932;6.962;2023-05-23T23:50:07;14.20;73.80
1063;DHT22;520;50.932;6.962;2023-05-23T23:52:56;13.90;73.90
1063;DHT22;520;50.932;6.962;2023-05-23T23:55:47;13.80;74.60
1063;DHT22;520;50.932;6.962;2023-05-23T23:58:19;13.70;75.20
